Clericy, Canada
Current Conditions -  °F | °C
As of 9:00 AM on Sunday 23 Nov 2014 (Local Time) from CYUY Reporting Station
Haze Haze  
Wind Chill: 27°   Ceiling: 1800
Heat Index: 34°   Visibility: 2.5mi
Dew Point: 32°   Wind: 8mph
Humidity: 93%   Direction: 170°S
Pressure: 29.84"   Gusts: NA
Location:  48.37°N, 78.87°W
Report Text: CYUY 231400Z 17007KT 2 1/2SM BR SCT004 OVC018 01/00 A2984 RMK SF3SC5 SLP120
Loading
Personal Weather Stations






























Interactive Weather Map New forecast layout! Learn more

10-Day Weather Forecast

Advertisements
Track Severe Weather on mobile